Time;durP1;ratioP1;P1;durP2;ratioP2;P2;SDS_P1;SDS_P2;PMS_P1;PMS_P2;Temp;Humidity;BMP_temperature;BMP_pressure;BME280_temperature;BME280_humidity;BME280_pressure;Samples;Min_cycle;Max_cycle;Signal;HPM_P1;HPM_P2
2022/11/27 00:00:24;;;;;;;2.80;2.20;;;;;;;13.79;100.00;98496.78;5063962;28;20111;-81
2022/11/27 00:02:49;;;;;;;4.00;2.30;;;;;;;13.32;100.00;98504.56;5057733;28;20446;-82
2022/11/27 00:05:15;;;;;;;4.30;2.20;;;;;;;13.57;100.00;98492.06;5063742;28;20031;-80
2022/11/27 00:07:41;;;;;;;3.63;1.98;;;;;;;13.53;100.00;98511.97;5061727;28;20111;-92
2022/11/27 00:10:07;;;;;;;4.13;2.15;;;;;;;13.49;100.00;98496.84;5087471;28;20130;-89
2022/11/27 00:12:33;;;;;;;2.88;2.25;;;;;;;13.51;100.00;98492.94;5082191;28;20119;-89
2022/11/27 00:14:59;;;;;;;2.05;1.85;;;;;;;13.62;100.00;98496.63;5093557;28;20051;-90
2022/11/27 00:17:25;;;;;;;2.20;1.73;;;;;;;13.07;100.00;98497.63;5085317;28;20441;-88
2022/11/27 00:19:51;;;;;;;3.95;1.92;;;;;;;13.25;100.00;98494.94;5098612;28;20028;-90
2022/11/27 00:22:16;;;;;;;2.50;1.73;;;;;;;13.71;100.00;98483.91;5090303;28;20047;-87
2022/11/27 00:24:43;;;;;;;4.35;2.33;;;;;;;13.67;100.00;98490.66;5107733;28;20032;-90
2022/11/27 00:27:08;;;;;;;4.05;1.80;;;;;;;13.68;100.00;98493.09;5093985;28;20051;-89
2022/11/27 00:29:34;;;;;;;1.95;1.73;;;;;;;13.33;100.00;98488.53;5070487;28;20027;-89
2022/11/27 00:32:00;;;;;;;2.00;1.65;;;;;;;13.46;100.00;98484.09;5084888;28;20066;-88
2022/11/27 00:34:27;;;;;;;2.00;1.50;;;;;;;13.54;100.00;98491.69;5086924;28;20494;-87
2022/11/27 00:36:52;;;;;;;3.35;1.50;;;;;;;13.50;100.00;98507.16;5089093;28;20042;-89
2022/11/27 00:39:18;;;;;;;1.77;1.67;;;;;;;13.80;100.00;98516.03;5062505;28;20123;-86
2022/11/27 00:41:44;;;;;;;2.80;1.80;;;;;;;13.82;100.00;98509.50;5081571;28;20027;-88
2022/11/27 00:44:11;;;;;;;4.47;1.60;;;;;;;13.77;100.00;98483.00;5071290;28;20035;-87
2022/11/27 00:46:36;;;;;;;1.60;1.50;;;;;;;13.55;100.00;98453.75;5117968;27;20037;-88
2022/11/27 00:49:04;;;;;;;1.52;1.25;;;;;;;13.61;100.00;98409.84;5082515;28;20044;-89
2022/11/27 00:51:30;;;;;;;1.05;1.00;;;;;;;13.61;100.00;98454.69;5087458;28;20074;-86
2022/11/27 00:53:56;;;;;;;2.13;1.92;;;;;;;13.72;100.00;98482.88;5087402;28;20704;-88
2022/11/27 00:56:24;;;;;;;2.55;1.60;;;;;;;13.80;100.00;98487.81;5087038;28;20020;-86
2022/11/27 00:58:50;;;;;;;3.83;1.63;;;;;;;13.91;100.00;98490.66;5091138;28;20039;-86
2022/11/27 01:01:22;;;;;;;2.60;1.40;;;;;;;13.95;100.00;98475.97;5086939;28;20028;-87
2022/11/27 01:03:48;;;;;;;3.33;1.80;;;;;;;13.94;100.00;98474.38;5088397;28;20024;-87
2022/11/27 01:06:14;;;;;;;1.88;1.77;;;;;;;14.12;100.00;98466.34;5094831;28;20029;-86
2022/11/27 01:08:40;;;;;;;2.40;2.03;;;;;;;14.03;100.00;98478.28;5091488;28;20032;-88
2022/11/27 01:11:06;;;;;;;2.67;2.30;;;;;;;14.07;100.00;98476.78;5091827;28;20032;-88
2022/11/27 01:13:35;;;;;;;3.25;2.28;;;;;;;14.02;100.00;98476.69;5081530;28;20474;-87
2022/11/27 01:16:05;;;;;;;2.13;1.98;;;;;;;13.98;100.00;98475.53;5091671;28;20024;-87
2022/11/27 01:18:32;;;;;;;2.97;2.67;;;;;;;13.46;100.00;98478.81;5087632;28;20409;-85
2022/11/27 01:20:59;;;;;;;3.20;2.63;;;;;;;13.82;100.00;98483.13;5094369;28;20028;-86
2022/11/27 01:23:24;;;;;;;3.30;2.38;;;;;;;14.20;100.00;98480.22;5090211;28;20031;-87
2022/11/27 01:25:52;;;;;;;3.72;2.22;;;;;;;14.10;100.00;98478.97;5091312;28;20441;-89
2022/11/27 01:28:19;;;;;;;4.75;2.50;;;;;;;13.87;100.00;98485.06;5097399;28;20036;-88
2022/11/27 01:30:44;;;;;;;3.20;2.83;;;;;;;14.02;100.00;98478.50;5073772;28;20055;-89
2022/11/27 01:33:10;;;;;;;3.72;2.60;;;;;;;14.22;100.00;98486.84;5095059;28;20029;-90
2022/11/27 01:35:36;;;;;;;4.38;2.80;;;;;;;14.17;100.00;98488.63;5087307;28;20032;-88
2022/11/27 01:38:02;;;;;;;3.35;2.70;;;;;;;14.29;100.00;98484.09;5093599;28;20486;-88
2022/11/27 01:40:28;;;;;;;6.05;3.20;;;;;;;14.06;100.00;98475.19;5082569;28;20078;-89
2022/11/27 01:42:53;;;;;;;4.80;3.40;;;;;;;14.09;100.00;98482.63;5093967;28;20039;-90
2022/11/27 01:45:20;;;;;;;6.63;3.72;;;;;;;14.26;100.00;98472.19;5088674;28;20054;-88
2022/11/27 01:47:51;;;;;;;4.10;3.70;;;;;;;14.33;100.00;98469.38;5094127;28;20028;-91
2022/11/27 01:50:26;;;;;;;5.07;4.57;;;;;;;14.48;100.00;98454.91;5068751;28;20549;-89
2022/11/27 01:52:58;;;;;;;5.03;4.50;;;;;;;14.31;100.00;98468.03;5073156;28;20033;-89
2022/11/27 01:55:34;;;;;;;6.00;4.38;;;;;;;14.43;100.00;98474.91;5089466;28;20032;-89
2022/11/27 01:58:14;;;;;;;6.70;4.25;;;;;;;14.40;100.00;98479.81;5083376;28;20115;-89
2022/11/27 02:00:40;;;;;;;5.28;4.70;;;;;;;14.24;100.00;98478.72;5084103;28;20028;-89
2022/11/27 02:03:05;;;;;;;4.78;4.28;;;;;;;14.38;100.00;98485.34;5085008;28;20089;-88
2022/11/27 02:05:32;;;;;;;6.55;4.57;;;;;;;14.16;100.00;98473.81;5084912;28;20020;-90
2022/11/27 02:08:01;;;;;;;7.25;4.47;;;;;;;14.59;100.00;98472.56;5086652;28;20029;-89
2022/11/27 02:10:47;;;;;;;5.95;4.85;;;;;;;14.69;100.00;98485.94;5085433;28;20375;-88
2022/11/27 02:13:29;;;;;;;6.85;4.63;;;;;;;14.37;100.00;98489.03;5084749;28;20095;-89
2022/11/27 02:16:13;;;;;;;7.35;4.10;;;;;;;14.49;100.00;98477.63;5059006;28;20056;-89
2022/11/27 02:18:46;;;;;;;;;;;;;;;14.67;100.00;98479.31;5087097;28;20032;-89
2022/11/27 02:21:37;;;;;;;7.78;4.32;;;;;;;14.75;100.00;98470.25;5085187;28;19916;-90
2022/11/27 02:24:29;;;;;;;7.05;4.78;;;;;;;14.51;100.00;98492.22;5076615;28;20036;-86
2022/11/27 02:27:21;;;;;;;9.05;4.78;;;;;;;14.71;100.00;98477.81;5076434;28;20067;-87
2022/11/27 02:29:53;;;;;;;6.90;5.10;;;;;;;14.60;100.00;98476.81;5087091;28;20021;-88
2022/11/27 02:32:23;;;;;;;11.73;5.18;;;;;;;14.56;100.00;98475.66;5086582;28;20492;-87
2022/11/27 02:34:49;;;;;;;7.55;5.15;;;;;;;14.57;100.00;98485.19;5085558;28;20035;-86
2022/11/27 02:37:14;;;;;;;6.53;4.70;;;;;;;14.43;100.00;98496.00;5081254;28;20454;-88
2022/11/27 02:39:55;;;;;;;11.90;5.35;;;;;;;14.42;100.00;98493.59;5081338;28;20028;-89
2022/11/27 02:42:25;;;;;;;8.70;5.22;;;;;;;14.39;100.00;98486.97;5087872;28;20024;-87
2022/11/27 02:45:00;;;;;;;6.38;4.90;;;;;;;14.59;100.00;98484.94;5085244;28;20135;-87
2022/11/27 02:47:27;;;;;;;8.98;4.78;;;;;;;14.63;100.00;98486.91;5092946;28;20028;-90
2022/11/27 02:49:55;;;;;;;7.82;5.10;;;;;;;14.63;100.00;98468.41;5087297;28;20081;-88
2022/11/27 02:52:23;;;;;;;7.18;5.20;;;;;;;14.64;100.00;98477.94;5079282;28;20108;-87
2022/11/27 02:54:53;;;;;;;5.72;5.00;;;;;;;14.53;100.00;98476.94;5063499;28;20440;-85
2022/11/27 02:57:23;;;;;;;7.15;5.55;;;;;;;14.45;100.00;98481.78;5079536;28;20020;-88
2022/11/27 02:59:50;;;;;;;11.18;5.80;;;;;;;14.35;100.00;98459.44;5083370;28;20040;-88
2022/11/27 03:02:22;;;;;;;11.30;5.75;;;;;;;14.52;100.00;98463.94;5081360;28;20503;-88
2022/11/27 03:04:51;;;;;;;12.15;4.70;;;;;;;14.24;100.00;98474.22;5086877;28;20390;-88
2022/11/27 03:07:25;;;;;;;9.27;4.75;;;;;;;14.21;100.00;98468.63;5064779;28;20067;-87
2022/11/27 03:09:56;;;;;;;15.48;5.60;;;;;;;14.14;100.00;98489.88;5079425;28;20115;-86
2022/11/27 03:12:21;;;;;;;9.52;4.22;;;;;;;14.01;100.00;98480.34;5084789;28;20382;-88
2022/11/27 03:14:48;;;;;;;8.98;4.25;;;;;;;14.17;100.00;98493.88;5086144;28;20054;-89
2022/11/27 03:17:45;;;;;;;11.45;4.05;;;;;;;13.96;100.00;98482.91;5084089;28;20052;-90
2022/11/27 03:20:20;;;;;;;12.05;4.55;;;;;;;13.97;100.00;98471.31;5087858;28;20533;-89
2022/11/27 03:22:46;;;;;;;11.77;4.28;;;;;;;13.84;100.00;98459.94;5076265;28;20063;-88
2022/11/27 03:25:12;;;;;;;13.25;3.65;;;;;;;13.54;100.00;98471.38;5084233;28;20030;-89
2022/11/27 03:27:46;;;;;;;11.27;4.35;;;;;;;13.95;100.00;98465.44;5084857;28;20027;-89
2022/11/27 03:30:13;;;;;;;13.57;4.63;;;;;;;13.72;100.00;98467.03;5085646;28;20060;-89
2022/11/27 03:32:38;;;;;;;13.02;4.00;;;;;;;13.82;100.00;98464.66;5086203;28;20462;-87
2022/11/27 03:35:08;;;;;;;15.90;4.35;;;;;;;13.85;100.00;98460.72;5087152;28;20042;-90
2022/11/27 03:37:33;;;;;;;15.52;3.72;;;;;;;13.54;100.00;98455.56;5077890;28;20036;-88
2022/11/27 03:39:59;;;;;;;17.17;4.38;;;;;;;13.93;100.00;98463.03;5086794;28;20405;-87
2022/11/27 03:42:36;;;;;;;16.42;4.10;;;;;;;14.01;100.00;98469.81;5087917;28;20457;-89
2022/11/27 03:45:05;;;;;;;14.65;3.90;;;;;;;13.85;100.00;98493.22;5085150;28;20107;-89
2022/11/27 03:47:58;;;;;;;19.85;4.65;;;;;;;13.94;100.00;98496.31;5084091;28;20036;-91
2022/11/27 03:50:34;;;;;;;16.67;4.68;;;;;;;13.54;100.00;98503.03;5084290;28;20036;-90
2022/11/27 03:53:23;;;;;;;9.15;3.25;;;;;;;13.83;100.00;98505.00;5078776;28;20043;-88
2022/11/27 03:56:07;;;;;;;15.27;3.13;;;;;;;13.64;100.00;98512.22;5079879;28;20032;-89
2022/11/27 03:58:39;;;;;;;18.63;3.70;;;;;;;13.73;100.00;98508.22;5088362;28;20058;-90
2022/11/27 04:01:10;;;;;;;17.10;4.07;;;;;;;13.79;100.00;98515.22;5082374;28;20031;-88
2022/11/27 04:03:36;;;;;;;11.43;3.78;;;;;;;13.76;100.00;98506.97;5086978;28;20020;-88
2022/11/27 04:06:02;;;;;;;16.30;3.53;;;;;;;13.74;100.00;98506.38;5083265;28;20028;-89
2022/11/27 04:08:28;;;;;;;16.15;3.60;;;;;;;13.70;100.00;98498.13;5081936;28;20029;-88
2022/11/27 04:10:53;;;;;;;15.75;4.15;;;;;;;13.55;100.00;98507.28;5085566;28;20043;-90
2022/11/27 04:13:19;;;;;;;17.52;5.53;;;;;;;13.57;100.00;98507.88;5065455;28;20077;-89
2022/11/27 04:15:45;;;;;;;19.30;4.03;;;;;;;13.48;100.00;98498.66;5066296;28;20381;-87
2022/11/27 04:18:10;;;;;;;21.38;3.88;;;;;;;13.43;100.00;98514.38;5066512;28;20103;-90
2022/11/27 04:20:36;;;;;;;10.25;3.88;;;;;;;13.51;100.00;98508.75;5083142;28;20028;-90
2022/11/27 04:23:02;;;;;;;19.92;3.70;;;;;;;13.50;100.00;98517.69;5090996;28;20058;-90
2022/11/27 04:25:28;;;;;;;14.00;3.33;;;;;;;13.49;100.00;98521.38;5092128;28;20028;-89
2022/11/27 04:27:54;;;;;;;21.25;3.83;;;;;;;13.28;100.00;98544.56;5060912;28;20035;-88
2022/11/27 04:30:20;;;;;;;21.73;3.83;;;;;;;13.28;100.00;98541.91;5087827;28;20401;-90
2022/11/27 04:32:45;;;;;;;18.15;4.78;;;;;;;13.46;100.00;98535.00;5084931;28;20487;-89
2022/11/27 04:35:11;;;;;;;21.60;4.82;;;;;;;13.51;100.00;98540.41;5087004;28;20177;-89
2022/11/27 04:37:37;;;;;;;25.23;4.28;;;;;;;13.37;100.00;98533.72;5081352;28;20028;-88
2022/11/27 04:40:03;;;;;;;25.55;5.72;;;;;;;13.50;100.00;98538.00;5084894;28;20036;-88
2022/11/27 04:42:29;;;;;;;20.67;3.97;;;;;;;13.39;100.00;98527.16;5085873;28;20025;-89
2022/11/27 04:44:55;;;;;;;27.48;5.28;;;;;;;13.34;100.00;98528.84;5085501;28;20020;-89
2022/11/27 04:47:21;;;;;;;22.92;4.78;;;;;;;13.27;100.00;98534.25;5082720;28;20040;-88
2022/11/27 04:49:48;;;;;;;27.60;4.45;;;;;;;13.32;100.00;98533.56;5071678;28;20040;-88
2022/11/27 04:52:14;;;;;;;23.60;4.97;;;;;;;13.16;100.00;98542.91;5082706;28;20138;-89
2022/11/27 04:54:39;;;;;;;21.40;4.50;;;;;;;13.18;100.00;98536.41;5081530;28;20048;-88
2022/11/27 04:57:05;;;;;;;22.55;4.15;;;;;;;13.35;100.00;98531.28;5083847;28;20394;-87
2022/11/27 04:59:31;;;;;;;29.30;4.85;;;;;;;13.33;100.00;98516.72;5082730;28;20482;-89
2022/11/27 05:01:57;;;;;;;26.67;4.25;;;;;;;13.28;100.00;98539.28;5086265;28;20035;-87
2022/11/27 05:04:23;;;;;;;20.05;3.97;;;;;;;13.29;100.00;98542.72;5085082;28;20409;-90
2022/11/27 05:06:49;;;;;;;15.75;3.90;;;;;;;13.19;100.00;98553.81;5062840;28;20032;-89
2022/11/27 05:09:16;;;;;;;20.27;3.47;;;;;;;13.16;100.00;98553.44;5088899;28;20028;-88
2022/11/27 05:11:43;;;;;;;16.50;4.30;;;;;;;13.03;100.00;98549.16;5083505;28;20032;-91
2022/11/27 05:14:19;;;;;;;27.95;4.55;;;;;;;13.03;100.00;98567.59;5081714;28;20081;-88
2022/11/27 05:16:50;;;;;;;21.70;4.10;;;;;;;13.00;100.00;98576.75;5082323;28;20557;-87
2022/11/27 05:19:18;;;;;;;24.73;4.28;;;;;;;12.97;100.00;98577.19;5081182;28;20020;-86
2022/11/27 05:21:45;;;;;;;27.10;5.18;;;;;;;12.95;100.00;98577.41;5059815;28;20089;-87
2022/11/27 05:24:11;;;;;;;29.10;6.15;;;;;;;12.88;100.00;98573.25;5088336;28;20121;-87
2022/11/27 05:26:38;;;;;;;31.65;3.92;;;;;;;12.78;100.00;98566.66;5082691;28;20032;-89
2022/11/27 05:29:04;;;;;;;35.63;5.03;;;;;;;12.77;100.00;98585.31;5080519;28;20039;-88
2022/11/27 05:31:30;;;;;;;30.80;4.57;;;;;;;12.81;100.00;98584.66;5080099;28;20049;-89
2022/11/27 05:33:56;;;;;;;34.70;6.30;;;;;;;12.74;100.00;98585.75;5082945;28;20043;-88
2022/11/27 05:36:22;;;;;;;30.33;6.00;;;;;;;12.69;100.00;98576.69;5083155;28;20028;-89
2022/11/27 05:38:48;;;;;;;43.13;5.85;;;;;;;12.74;100.00;98572.59;5078064;28;20115;-87
2022/11/27 05:41:13;;;;;;;42.08;5.90;;;;;;;12.65;100.00;98577.34;5085692;28;20584;-88
2022/11/27 05:43:39;;;;;;;43.97;6.20;;;;;;;12.62;100.00;98581.22;5062082;28;20371;-86
2022/11/27 05:46:07;;;;;;;50.60;7.68;;;;;;;12.57;100.00;98578.44;5082952;28;20052;-89
2022/11/27 05:48:36;;;;;;;41.13;6.07;;;;;;;12.71;100.00;98579.91;5082300;28;20470;-90
2022/11/27 05:51:02;;;;;;;44.03;8.02;;;;;;;12.77;100.00;98591.41;5080147;28;20028;-90
2022/11/27 05:53:29;;;;;;;54.33;6.63;;;;;;;12.68;100.00;98590.88;5062533;28;20155;-86
2022/11/27 05:56:03;;;;;;;49.63;8.05;;;;;;;12.79;100.00;98596.47;5080511;28;20028;-87
2022/11/27 05:58:29;;;;;;;49.15;6.80;;;;;;;12.70;100.00;98593.31;5080187;28;20097;-86
2022/11/27 06:00:54;;;;;;;41.88;7.25;;;;;;;12.69;100.00;98612.75;5078386;28;20033;-86
2022/11/27 06:03:20;;;;;;;41.42;7.15;;;;;;;12.70;100.00;98594.09;5083451;28;20100;-87
2022/11/27 06:05:46;;;;;;;35.13;6.93;;;;;;;12.67;100.00;98614.78;5087634;28;20465;-88
2022/11/27 06:08:12;;;;;;;46.38;7.22;;;;;;;12.65;100.00;98612.38;5094546;28;20440;-87
2022/11/27 06:10:38;;;;;;;40.17;6.28;;;;;;;12.62;100.00;98609.38;5096700;28;20028;-88
2022/11/27 06:13:04;;;;;;;52.10;7.75;;;;;;;12.64;100.00;98605.50;5088655;28;20066;-88
2022/11/27 06:15:30;;;;;;;42.35;5.85;;;;;;;12.65;100.00;98601.03;5089059;28;20474;-87
2022/11/27 06:17:55;;;;;;;66.75;8.65;;;;;;;12.52;100.00;98623.03;5087583;28;20034;-90
2022/11/27 06:20:21;;;;;;;41.30;6.75;;;;;;;12.63;100.00;98635.50;5070793;28;20111;-88
2022/11/27 06:22:47;;;;;;;48.38;8.30;;;;;;;12.51;100.00;98630.16;5090389;28;20445;-89
2022/11/27 06:25:12;;;;;;;50.10;7.50;;;;;;;12.64;100.00;98620.50;5092006;28;20085;-88
2022/11/27 06:27:38;;;;;;;61.55;9.75;;;;;;;12.50;100.00;98633.00;5065629;28;20032;-87
2022/11/27 06:30:04;;;;;;;50.00;6.97;;;;;;;12.68;100.00;98625.13;5079523;28;20394;-90
2022/11/27 06:32:30;;;;;;;60.40;8.70;;;;;;;12.63;100.00;98617.06;5082963;28;20035;-87
2022/11/27 06:34:58;;;;;;;35.08;6.07;;;;;;;12.63;100.00;98624.97;5063724;28;20036;-88
2022/11/27 06:37:23;;;;;;;50.75;9.63;;;;;;;12.51;100.00;98631.97;5087288;28;20024;-89
2022/11/27 06:39:49;;;;;;;60.42;9.20;;;;;;;12.50;100.00;98625.09;5088053;28;20035;-89
2022/11/27 06:42:14;;;;;;;60.88;9.10;;;;;;;12.51;100.00;98611.72;5086093;28;20114;-88
2022/11/27 06:44:40;;;;;;;47.03;9.35;;;;;;;12.62;100.00;98607.56;5087919;28;20027;-90
2022/11/27 06:47:07;;;;;;;46.10;8.23;;;;;;;12.52;100.00;98597.53;5085348;28;20109;-88
2022/11/27 06:49:32;;;;;;;56.38;9.65;;;;;;;12.55;100.00;98601.53;5068205;28;20486;-88
2022/11/27 06:51:58;;;;;;;49.30;7.68;;;;;;;12.50;100.00;98618.00;5079204;28;20150;-89
2022/11/27 06:54:24;;;;;;;57.17;8.07;;;;;;;12.34;100.00;98611.47;5065574;28;20354;-87
2022/11/27 06:56:50;;;;;;;40.13;7.90;;;;;;;12.57;100.00;98608.22;5088070;28;20029;-88
2022/11/27 06:59:16;;;;;;;48.10;7.65;;;;;;;12.54;100.00;98611.28;5083040;28;20047;-89
2022/11/27 07:01:42;;;;;;;67.68;10.18;;;;;;;12.30;100.00;98620.81;5085322;28;20154;-88
2022/11/27 07:04:13;;;;;;;47.78;10.45;;;;;;;12.53;100.00;98630.72;5083712;28;20029;-88
2022/11/27 07:06:39;;;;;;;55.55;8.32;;;;;;;12.52;100.00;98633.56;5085198;28;20060;-90
2022/11/27 07:09:06;;;;;;;64.05;9.25;;;;;;;12.36;100.00;98634.94;5075101;28;20119;-88
2022/11/27 07:11:33;;;;;;;46.13;7.50;;;;;;;12.55;100.00;98627.88;5081440;28;20028;-87
2022/11/27 07:14:03;;;;;;;60.85;9.85;;;;;;;12.50;100.00;98625.09;5087002;28;20092;-86
2022/11/27 07:16:32;;;;;;;51.03;9.13;;;;;;;12.63;100.00;98611.81;5083055;28;20545;-88
2022/11/27 07:19:00;;;;;;;47.50;7.72;;;;;;;12.63;100.00;98606.53;5083302;28;20024;-86
2022/11/27 07:21:26;;;;;;;47.45;8.55;;;;;;;12.53;100.00;98633.38;5079105;28;20394;-87
2022/11/27 07:23:52;;;;;;;46.55;8.10;;;;;;;12.59;100.00;98634.34;5082282;28;20029;-87
2022/11/27 07:26:20;;;;;;;52.05;7.63;;;;;;;12.59;100.00;98618.53;5060114;28;20375;-87
2022/11/27 07:28:47;;;;;;;43.72;7.47;;;;;;;12.65;100.00;98622.91;5078532;28;20024;-88
2022/11/27 07:31:15;;;;;;;40.33;6.53;;;;;;;12.71;100.00;98622.03;5086427;28;20107;-86
2022/11/27 07:33:40;;;;;;;43.65;7.28;;;;;;;12.73;100.00;98623.66;5082353;28;20035;-86
2022/11/27 07:36:07;;;;;;;51.40;7.70;;;;;;;12.60;100.00;98622.78;5085286;28;20110;-89
2022/11/27 07:38:33;;;;;;;48.42;7.32;;;;;;;12.51;100.00;98617.00;5086748;28;20097;-87
2022/11/27 07:41:01;;;;;;;38.47;6.43;;;;;;;12.46;100.00;98608.91;5085580;28;20025;-90
2022/11/27 07:43:27;;;;;;;39.00;7.70;;;;;;;12.45;100.00;98622.31;5086905;28;20024;-89
2022/11/27 07:45:53;;;;;;;38.40;7.88;;;;;;;12.38;100.00;98628.44;5066782;28;20024;-88
2022/11/27 07:48:18;;;;;;;31.67;5.82;;;;;;;12.38;100.00;98641.63;5082163;28;20028;-85
2022/11/27 07:50:44;;;;;;;23.83;5.93;;;;;;;12.39;100.00;98629.25;5082233;28;20054;-87
2022/11/27 07:53:09;;;;;;;31.67;6.90;;;;;;;12.38;100.00;98638.97;5080208;28;20398;-84
2022/11/27 07:55:39;;;;;;;45.90;7.28;;;;;;;12.45;100.00;98638.91;5082932;28;20040;-86
2022/11/27 07:58:06;;;;;;;36.47;7.05;;;;;;;12.36;100.00;98634.94;5086485;28;20481;-84
2022/11/27 08:00:31;;;;;;;37.63;8.18;;;;;;;12.38;100.00;98641.63;5072687;28;20032;-87
2022/11/27 08:02:59;;;;;;;45.40;7.35;;;;;;;12.45;100.00;98638.09;5090334;28;20026;-87
2022/11/27 08:05:25;;;;;;;31.90;5.90;;;;;;;12.43;100.00;98636.50;5076926;28;20028;-87
2022/11/27 08:07:51;;;;;;;37.05;6.65;;;;;;;12.41;100.00;98633.28;5085527;28;20028;-89
2022/11/27 08:10:16;;;;;;;43.03;7.65;;;;;;;12.42;100.00;98634.88;5083163;28;20494;-89
2022/11/27 08:12:42;;;;;;;35.20;6.63;;;;;;;12.37;100.00;98639.19;5093175;28;20062;-85
2022/11/27 08:15:09;;;;;;;35.38;6.03;;;;;;;12.38;100.00;98649.50;5084664;28;20025;-87
2022/11/27 08:17:35;;;;;;;58.53;9.07;;;;;;;12.18;100.00;98644.41;5087200;28;20386;-88
2022/11/27 08:20:01;;;;;;;58.47;8.75;;;;;;;12.06;100.00;98636.41;5079119;28;20058;-87
2022/11/27 08:22:26;;;;;;;46.00;7.97;;;;;;;12.20;100.00;98636.31;5065679;28;20071;-88
2022/11/27 08:24:52;;;;;;;55.17;9.73;;;;;;;12.23;100.00;98657.72;5078061;28;20035;-89
2022/11/27 08:27:18;;;;;;;57.38;8.80;;;;;;;12.28;100.00;98660.53;5075269;28;20036;-88
2022/11/27 08:29:43;;;;;;;56.22;11.43;;;;;;;12.18;100.00;98673.34;5084538;28;20339;-89
2022/11/27 08:32:09;;;;;;;64.38;10.95;;;;;;;12.16;100.00;98666.66;5071790;28;20132;-89
2022/11/27 08:34:36;;;;;;;75.18;11.70;;;;;;;12.30;100.00;98647.13;5065290;28;20124;-87
2022/11/27 08:37:03;;;;;;;45.45;10.10;;;;;;;12.41;100.00;98649.06;5080880;28;20425;-86
2022/11/27 08:39:29;;;;;;;73.07;13.52;;;;;;;12.38;100.00;98652.13;5065595;28;20040;-85
2022/11/27 08:41:54;;;;;;;55.25;11.07;;;;;;;12.46;100.00;98655.50;5080831;28;20475;-86
2022/11/27 08:44:20;;;;;;;70.32;12.43;;;;;;;12.42;100.00;98645.41;5082893;28;20489;-83
2022/11/27 08:46:46;;;;;;;66.72;11.68;;;;;;;12.37;100.00;98645.25;5078794;28;20473;-84
2022/11/27 08:49:11;;;;;;;62.40;11.57;;;;;;;12.19;100.00;98640.75;5078998;28;20115;-81
2022/11/27 08:51:38;;;;;;;53.35;12.90;;;;;;;12.41;100.00;98651.69;5077486;28;20044;-80
2022/11/27 08:54:03;;;;;;;65.20;12.18;;;;;;;12.55;100.00;98670.00;5075574;28;20546;-83
2022/11/27 08:56:29;;;;;;;61.60;11.73;;;;;;;12.40;100.00;98668.53;5075105;28;20077;-84
2022/11/27 08:58:56;;;;;;;64.35;12.13;;;;;;;12.59;100.00;98673.00;5077363;28;20032;-84
2022/11/27 09:01:24;;;;;;;50.42;10.40;;;;;;;12.64;100.00;98657.34;5076187;28;20033;-84
2022/11/27 09:03:51;;;;;;;53.70;9.10;;;;;;;12.76;100.00;98652.19;5081396;28;20029;-83
2022/11/27 09:06:20;;;;;;;52.92;9.77;;;;;;;12.93;100.00;98650.56;5077428;28;20034;-86
2022/11/27 09:08:46;;;;;;;62.13;9.80;;;;;;;13.04;100.00;98645.63;5077907;28;20024;-86
2022/11/27 09:11:14;;;;;;;48.78;10.05;;;;;;;12.53;100.00;98629.91;5082076;28;20032;-83
2022/11/27 09:13:41;;;;;;;56.30;10.23;;;;;;;12.73;100.00;98649.97;5079900;28;20073;-85
2022/11/27 09:16:25;;;;;;;55.35;9.35;;;;;;;12.75;100.00;98621.59;5082152;28;20044;-86
2022/11/27 09:18:52;;;;;;;44.38;9.13;;;;;;;12.57;100.00;98623.19;5083917;28;20420;-83
2022/11/27 09:21:20;;;;;;;47.72;8.40;;;;;;;12.72;100.00;98620.22;5083478;28;20107;-82
2022/11/27 09:23:46;;;;;;;57.88;10.40;;;;;;;12.66;100.00;98616.63;5081237;28;20078;-83
2022/11/27 09:26:14;;;;;;;57.00;9.15;;;;;;;12.71;100.00;98619.41;5078885;28;20115;-83
2022/11/27 09:28:41;;;;;;;42.55;7.97;;;;;;;12.63;100.00;98609.19;5078852;28;20028;-81
2022/11/27 09:31:09;;;;;;;51.20;8.98;;;;;;;12.85;100.00;98614.78;5079375;28;20044;-83
2022/11/27 09:33:37;;;;;;;60.28;9.77;;;;;;;12.78;100.00;98614.06;5081697;28;20029;-82
2022/11/27 09:36:06;;;;;;;52.05;9.75;;;;;;;12.83;100.00;98613.44;5079149;28;20029;-82
2022/11/27 09:38:32;;;;;;;59.58;8.30;;;;;;;13.05;100.00;98616.41;5082673;28;20784;-82
2022/11/27 09:41:03;;;;;;;53.55;8.82;;;;;;;13.25;100.00;98612.72;5066428;28;20042;-82
2022/11/27 09:43:34;;;;;;;42.97;8.20;;;;;;;13.20;100.00;98628.41;5084909;28;20122;-81
2022/11/27 09:46:07;;;;;;;47.63;9.13;;;;;;;13.18;100.00;98633.09;5084550;28;20036;-82
2022/11/27 09:48:38;;;;;;;46.28;9.85;;;;;;;13.33;100.00;98638.78;5086886;28;20028;-82
2022/11/27 09:51:22;;;;;;;53.05;9.15;;;;;;;13.43;100.00;98631.16;5079788;28;20441;-82
2022/11/27 09:53:59;;;;;;;45.15;8.10;;;;;;;13.39;100.00;98618.63;5087527;28;20028;-83
2022/11/27 09:56:25;;;;;;;43.83;9.20;;;;;;;13.47;100.00;98614.91;5086937;28;20032;-83
2022/11/27 09:58:57;;;;;;;41.22;9.93;;;;;;;13.29;100.00;98617.31;5083222;28;20644;-82
2022/11/27 10:01:29;;;;;;;51.50;9.33;;;;;;;13.07;100.00;98622.28;5084135;28;20028;-81
2022/11/27 10:03:55;;;;;;;47.42;8.98;;;;;;;13.21;100.00;98615.00;5081370;28;20020;-81
2022/11/27 10:06:34;;;;;;;48.55;8.52;;;;;;;13.07;100.00;98622.28;5085666;28;20078;-83
2022/11/27 10:09:05;;;;;;;45.80;7.90;;;;;;;13.33;100.00;98616.88;5079863;28;20573;-84
2022/11/27 10:11:41;;;;;;;52.65;9.93;;;;;;;13.25;100.00;98613.53;5083562;28;20044;-81
2022/11/27 10:14:26;;;;;;;47.95;8.02;;;;;;;13.33;100.00;98627.41;5085448;28;20024;-83
2022/11/27 10:17:05;;;;;;;;;;;;;;;13.41;100.00;98635.03;5077600;28;20428;-82
2022/11/27 10:19:41;;;;;;;49.38;8.77;;;;;;;13.59;100.00;98633.41;5083217;28;19912;-80
2022/11/27 10:22:47;;;;;;;42.95;8.57;;;;;;;13.83;100.00;98632.44;5075428;28;20072;-79
2022/11/27 10:25:16;;;;;;;44.88;7.85;;;;;;;13.57;100.00;98637.09;5081220;28;20027;-82
2022/11/27 10:27:57;;;;;;;46.42;9.18;;;;;;;13.74;100.00;98639.06;5083091;28;20051;-83
2022/11/27 10:30:25;;;;;;;52.20;8.63;;;;;;;13.73;100.00;98641.94;5077015;28;20547;-83
2022/11/27 10:32:54;;;;;;;43.90;9.18;;;;;;;13.88;100.00;98633.59;5080736;28;20037;-82
2022/11/27 10:35:26;;;;;;;54.40;8.27;;;;;;;13.82;100.00;98630.84;5083608;28;20028;-80
2022/11/27 10:37:57;;;;;;;51.83;8.10;;;;;;;14.07;100.00;98637.75;5075272;28;20161;-81
2022/11/27 10:40:48;;;;;;;49.70;8.63;;;;;;;13.75;100.00;98637.25;5081336;28;20510;-84
2022/11/27 10:43:24;;;;;;;56.67;8.70;;;;;;;13.75;100.00;98624.06;5077982;28;20059;-83
2022/11/27 10:46:01;;;;;;;44.17;7.35;;;;;;;13.56;100.00;98627.56;5082554;28;20031;-84
2022/11/27 10:48:28;;;;;;;34.78;7.38;;;;;;;13.77;100.00;98622.00;5063858;28;20028;-83
2022/11/27 10:50:54;;;;;;;47.08;8.07;;;;;;;13.61;100.00;98626.06;5063310;28;20031;-85
2022/11/27 10:53:41;;;;;;;50.58;8.23;;;;;;;13.72;100.00;98614.75;5078974;28;20496;-84
2022/11/27 10:56:35;;;;;;;52.05;9.60;;;;;;;13.49;100.00;98615.50;5080986;28;20819;-83
2022/11/27 10:59:09;;;;;;;37.80;8.50;;;;;;;13.61;100.00;98611.03;5087414;28;20028;-84
2022/11/27 11:01:46;;;;;;;37.67;8.30;;;;;;;13.81;100.00;98607.31;5083291;28;20538;-82
2022/11/27 11:04:14;;;;;;;55.75;8.73;;;;;;;13.64;100.00;98617.72;5079670;28;20025;-83
2022/11/27 11:06:47;;;;;;;46.35;9.20;;;;;;;13.56;100.00;98621.47;5083278;28;20032;-83
2022/11/27 11:09:33;;;;;;;38.08;7.55;;;;;;;13.78;100.00;98623.59;5084529;28;20036;-83
2022/11/27 11:12:06;;;;;;;54.80;10.15;;;;;;;13.69;100.00;98621.28;5082086;28;20072;-82
2022/11/27 11:14:31;;;;;;;33.22;6.60;;;;;;;13.85;100.00;98614.56;5080689;28;20651;-83
2022/11/27 11:16:57;;;;;;;43.97;8.02;;;;;;;13.77;100.00;98601.69;5079089;28;20032;-83
2022/11/27 11:19:34;;;;;;;41.90;9.70;;;;;;;13.52;100.00;98601.84;5079399;28;20043;-83
2022/11/27 11:22:12;;;;;;;37.17;7.25;;;;;;;13.88;100.00;98594.03;5086967;28;20040;-83
2022/11/27 11:24:43;;;;;;;41.20;7.68;;;;;;;13.68;100.00;98588.03;5077702;28;20033;-83
2022/11/27 11:27:16;;;;;;;50.63;8.80;;;;;;;14.01;100.00;98596.47;5059687;28;20043;-83